Airfield :
LOGIN :

Register | Disclaimer

   EN    FR    IT 

 










Legend :    VFR   Marginal VFR   IFR   Intensive IFR   Very Intensive IFR
Visi :
Ceiling :
>= 8 km
>= 3000ft
5 to 8 km
1000 to 3000 ft
1500m to 5 km
500 to 1000 ft
800 to 1500m
200 to 500 ft
< 800m
< 200 ft
Symbols :   Thunderstorms  Fog  Heavy snow  Heavy precipitations  Wind > 20 kt
SIGMETs :     Misc.  Thunderstorms  Icing  Turbulence  Mountain Waves  Volcanic Ashes






- Airport Elevation : 913 ft


LFSX - Luxeuil

CURRENT METAR :
  • 031000Z AUTO 23006KT 160V290 CAVOK 25/11 Q1007

EXPIRED METARs :
  • 030930Z AUTO VRB04KT CAVOK 24/13 Q1007
  • 030900Z AUTO 18004KT 100V220 9999 ////// 23/12 Q1008
  • 030830Z AUTO 24005KT 200V280 CAVOK 22/12 Q1008
  • 030800Z AUTO 14004KT 100V200 9999 ////// 22/12 Q1008
  • 030730Z AUTO 13003KT 070V170 9999 ////// 21/13 Q1008

TAF TAF LFSX
Valid from the 03 at 09:00 until the 04 at 09:00 UTC


030800Z 0309/0409 13006KT CAVOK
TEMPO 0314/0409 21010G20KT SHRA BKN050TCU
PROB30
TEMPO 0316/0403 20015G25KT 3000 TSRA BKN040CB



MET'MAP, your aeronautical weather chart ! - Copyright ORBIFLY December 2007 - Disclaimer

ORBIFLY MET'MAP TEAM :

Programming & Development : Alexandra Zaïnal
Concept & original design : Baudouin d'Aumeries
Assistance for programming : Marc-Olivier Méhu
Technical & hardware support : Manuel Goepfert

Contact : metmap@orbifly.com




SOURCES & CREDITS :

   NOAA